createdAt,value
2023-02-06T00:01:52.542Z,-5.55
2023-02-06T00:04:21.332Z,-5.47
2023-02-06T00:06:50.142Z,-5.36
2023-02-06T00:09:18.833Z,-5.39
2023-02-06T00:11:47.486Z,-5.65
2023-02-06T00:14:15.353Z,-5.62
2023-02-06T00:16:45.793Z,-5.54
2023-02-06T00:19:14.504Z,-5.25
2023-02-06T00:21:43.012Z,-5.20
2023-02-06T00:24:11.746Z,-5.45
2023-02-06T00:26:40.409Z,-5.35
2023-02-06T00:29:08.241Z,-5.35
2023-02-06T00:31:37.076Z,-5.52
2023-02-06T00:34:04.978Z,-5.54
2023-02-06T00:36:34.250Z,-5.81
2023-02-06T00:39:03.349Z,-5.70
2023-02-06T00:41:32.252Z,-6.13
2023-02-06T00:44:01.008Z,-5.87
2023-02-06T00:46:29.729Z,-5.86
2023-02-06T00:49:00.246Z,-5.81
2023-02-06T00:51:28.895Z,-5.65
2023-02-06T00:53:57.522Z,-5.68
2023-02-06T00:56:26.223Z,-5.82
2023-02-06T00:58:54.015Z,-5.64
2023-02-06T01:01:22.943Z,-6.01
2023-02-06T01:03:51.792Z,-5.93
2023-02-06T01:06:20.991Z,-5.86
2023-02-06T01:08:49.674Z,-5.72
2023-02-06T01:11:25.221Z,-5.68
2023-02-06T01:13:54.361Z,-5.77
2023-02-06T01:16:25.428Z,-5.66
2023-02-06T01:18:55.934Z,-5.61
2023-02-06T01:21:25.646Z,-5.68
2023-02-06T01:23:55.724Z,-5.68
2023-02-06T01:26:27.641Z,-5.57
2023-02-06T01:28:56.838Z,-5.63
2023-02-06T01:31:31.096Z,-5.73
2023-02-06T01:34:00.915Z,-5.74
2023-02-06T01:36:30.074Z,-5.84
2023-02-06T01:38:58.835Z,-5.59
2023-02-06T01:41:27.623Z,-5.58
2023-02-06T01:44:22.680Z,-5.73
2023-02-06T01:46:56.163Z,-5.73
2023-02-06T01:49:48.705Z,-5.75
2023-02-06T01:52:25.705Z,-5.81
2023-02-06T01:55:00.864Z,-5.84
2023-02-06T01:57:29.756Z,-5.81
2023-02-06T02:00:09.043Z,-5.87
2023-02-06T02:02:45.028Z,-5.88
2023-02-06T02:05:14.133Z,-6.03
2023-02-06T02:08:01.503Z,-5.98
2023-02-06T02:10:32.192Z,-5.79
2023-02-06T02:13:00.864Z,-5.74
2023-02-06T02:15:50.089Z,-5.66
2023-02-06T02:19:10.880Z,-5.72
2023-02-06T02:22:28.641Z,-5.57
2023-02-06T02:25:52.766Z,-5.71
2023-02-06T02:29:02.980Z,-5.81
2023-02-06T02:32:05.265Z,-5.66
2023-02-06T02:35:20.549Z,-5.84
2023-02-06T02:38:04.247Z,-5.79
2023-02-06T02:41:05.929Z,-5.72
2023-02-06T02:44:33.701Z,-5.84
2023-02-06T02:47:08.350Z,-5.91
2023-02-06T02:49:38.745Z,-5.91
2023-02-06T02:52:07.128Z,-5.87
2023-02-06T02:54:35.865Z,-5.82
2023-02-06T02:57:17.582Z,-5.98
2023-02-06T02:59:48.895Z,-6.01
2023-02-06T03:02:28.949Z,-5.92
2023-02-06T03:05:04.593Z,-5.95
2023-02-06T03:08:42.210Z,-5.80
2023-02-06T03:11:18.856Z,-5.88
2023-02-06T03:14:11.393Z,-5.91
2023-02-06T03:16:57.156Z,-6.03
2023-02-06T03:19:35.667Z,-5.94
2023-02-06T03:22:06.506Z,-5.96
2023-02-06T03:24:40.257Z,-5.97
2023-02-06T03:27:16.035Z,-6.05
2023-02-06T03:29:48.012Z,-5.98
2023-02-06T03:32:28.447Z,-6.16
2023-02-06T03:35:26.852Z,-6.45
2023-02-06T03:37:55.988Z,-6.72
2023-02-06T03:40:27.492Z,-6.88
2023-02-06T03:43:00.580Z,-6.75
2023-02-06T03:45:43.183Z,-6.66
2023-02-06T03:48:23.249Z,-6.81
2023-02-06T03:50:54.476Z,-6.67
2023-02-06T03:53:27.075Z,-6.42
2023-02-06T03:56:07.198Z,-6.41
2023-02-06T03:58:37.420Z,-6.39
2023-02-06T04:01:08.522Z,-6.49
2023-02-06T04:03:38.206Z,-6.72
2023-02-06T04:06:06.254Z,-6.46
2023-02-06T04:08:35.863Z,-6.37
2023-02-06T04:11:03.781Z,-6.41
2023-02-06T04:13:32.855Z,-6.35
2023-02-06T04:16:02.968Z,-6.34
2023-02-06T04:18:32.609Z,-6.41
2023-02-06T04:21:07.662Z,-6.28
2023-02-06T04:23:35.834Z,-6.32
2023-02-06T04:26:05.594Z,-6.27
2023-02-06T04:28:35.216Z,-6.43
2023-02-06T04:31:05.114Z,-6.44
2023-02-06T04:33:33.961Z,-6.26
2023-02-06T04:36:01.773Z,-6.34
2023-02-06T04:38:29.552Z,-6.23
2023-02-06T04:41:05.330Z,-6.19
2023-02-06T04:43:33.939Z,-6.23
2023-02-06T04:46:02.780Z,-6.28
2023-02-06T04:48:32.331Z,-6.25
2023-02-06T04:51:01.912Z,-6.22
2023-02-06T04:53:29.787Z,-6.25
2023-02-06T04:56:07.952Z,-6.22
2023-02-06T04:58:40.168Z,-6.20
2023-02-06T05:01:08.938Z,-6.21
2023-02-06T05:03:38.504Z,-6.18
2023-02-06T05:06:07.649Z,-6.24
2023-02-06T05:08:36.346Z,-6.32
2023-02-06T05:11:04.366Z,-6.49
2023-02-06T05:13:34.089Z,-6.39
2023-02-06T05:16:16.508Z,-6.77
2023-02-06T05:18:45.718Z,-6.41
2023-02-06T05:21:15.823Z,-6.41
2023-02-06T05:23:43.651Z,-6.45
2023-02-06T05:26:12.268Z,-6.51
2023-02-06T05:28:41.019Z,-6.41
2023-02-06T05:31:09.935Z,-6.41
2023-02-06T05:33:38.788Z,-6.25
2023-02-06T05:36:08.992Z,-6.33
2023-02-06T05:38:36.860Z,-6.20
2023-02-06T05:41:05.840Z,-6.28
2023-02-06T05:43:35.043Z,-6.27
2023-02-06T05:46:04.322Z,-6.19
2023-02-06T05:48:34.962Z,-6.28
2023-02-06T05:51:04.896Z,-6.31
2023-02-06T05:53:33.793Z,-6.19
2023-02-06T05:56:01.600Z,-6.02
2023-02-06T05:58:32.604Z,-6.11
2023-02-06T06:01:00.543Z,-5.89
2023-02-06T06:03:30.353Z,-5.92
2023-02-06T06:06:00.723Z,-5.86
2023-02-06T06:08:29.530Z,-5.67
2023-02-06T06:10:58.286Z,-5.82
2023-02-06T06:13:27.080Z,-5.82
2023-02-06T06:15:55.034Z,-5.82
2023-02-06T06:18:23.115Z,-5.69
2023-02-06T06:20:50.976Z,-5.56
2023-02-06T06:23:19.749Z,-5.56
2023-02-06T06:25:49.490Z,-5.57
2023-02-06T06:28:18.394Z,-5.77
2023-02-06T06:30:47.225Z,-5.26
2023-02-06T06:33:16.797Z,-4.21
2023-02-06T06:35:45.426Z,-4.15
2023-02-06T06:38:14.064Z,-4.15
2023-02-06T06:40:42.661Z,-3.46
2023-02-06T06:43:11.323Z,-3.31
2023-02-06T06:45:40.107Z,-2.95
2023-02-06T06:48:09.006Z,-2.73
2023-02-06T06:50:37.683Z,-2.34
2023-02-06T06:53:05.473Z,-1.87
2023-02-06T06:55:33.486Z,-2.14
2023-02-06T06:58:02.277Z,-1.59
2023-02-06T07:00:30.127Z,-0.83
2023-02-06T07:02:57.957Z,-1.24
2023-02-06T07:05:26.664Z,-1.03
2023-02-06T07:07:55.368Z,-0.43
2023-02-06T07:10:24.318Z,1.15
2023-02-06T07:12:53.765Z,0.92
2023-02-06T07:15:21.545Z,1.25
2023-02-06T07:17:51.115Z,1.05
2023-02-06T07:20:20.730Z,1.65
2023-02-06T07:22:50.381Z,0.58
2023-02-06T07:25:20.754Z,0.22
2023-02-06T07:27:49.513Z,-0.49
2023-02-06T07:30:19.319Z,0.93
2023-02-06T07:32:48.047Z,1.04
2023-02-06T07:35:17.689Z,1.72
2023-02-06T07:37:46.438Z,2.12
2023-02-06T07:40:15.163Z,1.47
2023-02-06T07:42:44.663Z,0.32
2023-02-06T07:45:14.245Z,-1.08
2023-02-06T07:47:43.882Z,-1.68
2023-02-06T07:50:12.692Z,-1.59
2023-02-06T07:52:41.375Z,-1.75
2023-02-06T07:55:10.405Z,-1.65
2023-02-06T07:57:38.192Z,-1.55
2023-02-06T08:00:08.329Z,-1.46
2023-02-06T08:02:36.914Z,-1.50
2023-02-06T08:05:06.085Z,-1.35
2023-02-06T08:07:35.883Z,-1.50
2023-02-06T08:10:04.348Z,-1.31
2023-02-06T08:12:32.655Z,-0.96
2023-02-06T08:15:01.315Z,-1.13
2023-02-06T08:17:30.063Z,-1.36
2023-02-06T08:19:58.739Z,-1.34
2023-02-06T08:22:28.931Z,-1.06
2023-02-06T08:24:57.531Z,-1.03
2023-02-06T08:27:27.365Z,-0.65
2023-02-06T08:29:58.154Z,-0.91
2023-02-06T08:32:27.090Z,-0.94
2023-02-06T08:34:54.812Z,-1.08
2023-02-06T08:37:22.546Z,-0.64
2023-02-06T08:39:50.297Z,-0.84
2023-02-06T08:42:18.147Z,-0.54
2023-02-06T08:44:45.924Z,-0.54
2023-02-06T08:47:14.596Z,-0.41
2023-02-06T08:49:42.456Z,-0.61
2023-02-06T08:52:11.229Z,0.02
2023-02-06T08:54:39.090Z,-0.13
2023-02-06T08:57:09.904Z,-0.05
2023-02-06T08:59:39.733Z,-0.17
2023-02-06T09:02:12.227Z,-0.55
2023-02-06T09:04:42.831Z,0.17
2023-02-06T09:07:10.716Z,0.07
2023-02-06T09:09:39.496Z,0.18
2023-02-06T09:12:07.469Z,0.19
2023-02-06T09:14:35.578Z,0.04
2023-02-06T09:17:04.502Z,1.03
2023-02-06T09:19:32.294Z,0.26
2023-02-06T09:22:01.157Z,0.22
2023-02-06T09:24:32.269Z,0.22
2023-02-06T09:27:01.229Z,0.38
2023-02-06T09:29:32.250Z,0.51
2023-02-06T09:32:01.904Z,0.64
2023-02-06T09:34:30.624Z,0.49
2023-02-06T09:36:58.828Z,0.37
2023-02-06T09:39:26.921Z,0.83
2023-02-06T09:42:37.954Z,0.37
2023-02-06T09:45:22.447Z,0.55
2023-02-06T09:48:17.005Z,0.96
2023-02-06T09:51:10.917Z,1.12
2023-02-06T09:54:12.526Z,1.21
2023-02-06T09:57:39.341Z,0.82
2023-02-06T10:00:41.674Z,0.99
2023-02-06T10:03:36.629Z,0.88
2023-02-06T10:06:25.551Z,1.12
2023-02-06T10:09:17.043Z,0.96
2023-02-06T10:12:07.011Z,1.67
2023-02-06T10:14:56.529Z,1.63
2023-02-06T10:17:59.836Z,1.35
2023-02-06T10:20:43.520Z,1.08
2023-02-06T10:23:37.440Z,0.99
2023-02-06T10:26:18.691Z,1.42
2023-02-06T10:28:58.657Z,1.01
2023-02-06T10:31:41.093Z,1.08
2023-02-06T10:34:43.846Z,1.42
2023-02-06T10:38:16.060Z,1.00
2023-02-06T10:41:03.290Z,1.02
2023-02-06T10:43:53.983Z,0.65
2023-02-06T10:46:46.257Z,0.45
2023-02-06T10:49:31.852Z,1.16
2023-02-06T10:52:34.947Z,0.85
2023-02-06T10:55:27.028Z,0.76
2023-02-06T10:58:56.225Z,0.99
2023-02-06T11:01:29.998Z,0.76
2023-02-06T11:04:05.623Z,0.92
2023-02-06T11:06:34.243Z,1.16
2023-02-06T11:09:02.952Z,1.14
2023-02-06T11:11:42.756Z,1.00
2023-02-06T11:14:37.720Z,1.33
2023-02-06T11:17:05.452Z,1.12
2023-02-06T11:19:40.590Z,1.40
2023-02-06T11:22:17.470Z,1.12
2023-02-06T11:25:10.322Z,1.12
2023-02-06T11:27:44.369Z,0.99
2023-02-06T11:30:41.908Z,1.14
2023-02-06T11:33:58.763Z,1.38
2023-02-06T11:36:39.713Z,1.06
2023-02-06T11:39:34.396Z,1.31
2023-02-06T11:42:23.171Z,1.41
2023-02-06T11:44:53.964Z,0.96
2023-02-06T11:47:31.378Z,1.51
2023-02-06T11:50:36.034Z,1.16
2023-02-06T11:53:18.773Z,1.29
2023-02-06T11:56:17.813Z,1.17
2023-02-06T11:58:47.095Z,1.35
2023-02-06T12:01:22.242Z,1.33
2023-02-06T12:03:50.818Z,1.13
2023-02-06T12:06:38.078Z,0.85
2023-02-06T12:09:13.527Z,0.98
2023-02-06T12:11:53.244Z,1.48
2023-02-06T12:14:44.615Z,1.16
2023-02-06T12:17:46.721Z,1.32
2023-02-06T12:20:36.106Z,1.22
2023-02-06T12:23:13.298Z,1.59
2023-02-06T12:25:53.445Z,1.43
2023-02-06T12:29:03.718Z,1.47
2023-02-06T12:32:06.551Z,1.75
2023-02-06T12:34:49.792Z,1.66
2023-02-06T12:37:49.268Z,1.33
2023-02-06T12:40:31.716Z,1.05
2023-02-06T12:43:14.456Z,1.49
2023-02-06T12:46:02.948Z,1.44
2023-02-06T12:48:54.113Z,1.68
2023-02-06T12:51:53.100Z,1.30
2023-02-06T12:54:36.457Z,1.63
2023-02-06T12:57:19.607Z,1.83
2023-02-06T13:00:18.966Z,1.72
2023-02-06T13:03:18.555Z,1.81
2023-02-06T13:06:25.888Z,1.60
2023-02-06T13:09:05.449Z,1.64
2023-02-06T13:11:42.661Z,1.56
2023-02-06T13:14:28.085Z,1.44
2023-02-06T13:17:30.769Z,1.07
2023-02-06T13:20:09.313Z,0.92
2023-02-06T13:22:46.209Z,1.21
2023-02-06T13:25:26.032Z,1.31
2023-02-06T13:27:56.451Z,1.10
2023-02-06T13:30:31.041Z,1.09
2023-02-06T13:33:16.144Z,1.42
2023-02-06T13:36:17.934Z,1.19
2023-02-06T13:38:46.614Z,1.36
2023-02-06T13:41:15.328Z,1.40
2023-02-06T13:44:34.241Z,1.33
2023-02-06T13:47:53.553Z,1.31
2023-02-06T13:51:19.486Z,1.36
2023-02-06T13:54:54.081Z,1.62
2023-02-06T13:58:02.217Z,1.28
2023-02-06T14:00:33.600Z,1.39
2023-02-06T14:03:14.740Z,1.47
2023-02-06T14:05:55.640Z,1.60
2023-02-06T14:09:19.777Z,0.99
2023-02-06T14:12:36.835Z,1.57
2023-02-06T14:16:09.657Z,1.39
2023-02-06T14:19:34.680Z,1.34
2023-02-06T14:22:42.928Z,1.27
2023-02-06T14:25:55.295Z,1.37
2023-02-06T14:28:58.558Z,1.28
2023-02-06T14:32:08.107Z,1.19
2023-02-06T14:35:15.310Z,0.90
2023-02-06T14:38:27.366Z,0.91
2023-02-06T14:40:59.576Z,0.82
2023-02-06T14:43:37.388Z,0.87
2023-02-06T14:46:15.022Z,0.93
2023-02-06T14:48:57.535Z,0.82
2023-02-06T14:51:39.550Z,0.43
2023-02-06T14:54:40.751Z,0.33
2023-02-06T14:57:24.133Z,0.42
2023-02-06T14:59:59.393Z,0.48
2023-02-06T15:02:34.062Z,0.60
2023-02-06T15:05:06.153Z,0.51
2023-02-06T15:07:38.479Z,0.54
2023-02-06T15:10:18.414Z,0.22
2023-02-06T15:12:55.218Z,0.16
2023-02-06T15:15:32.550Z,0.17
2023-02-06T15:18:20.510Z,0.13
2023-02-06T15:21:06.176Z,0.09
2023-02-06T15:24:39.766Z,0.13
2023-02-06T15:27:33.830Z,0.01
2023-02-06T15:30:25.258Z,-0.14
2023-02-06T15:32:56.344Z,-0.07
2023-02-06T15:35:36.167Z,0.03
2023-02-06T15:38:15.458Z,-0.28
2023-02-06T15:40:48.422Z,-0.29
2023-02-06T15:43:22.115Z,-0.53
2023-02-06T15:46:01.421Z,-0.53
2023-02-06T15:48:43.737Z,-0.72
2023-02-06T15:51:31.348Z,-0.64
2023-02-06T15:54:23.126Z,-0.71
2023-02-06T15:57:16.337Z,-0.82
2023-02-06T15:59:46.340Z,-0.84
2023-02-06T16:02:35.399Z,-0.85
2023-02-06T16:05:07.232Z,-0.96
2023-02-06T16:07:37.041Z,-0.89
2023-02-06T16:10:26.134Z,-0.98
2023-02-06T16:12:57.723Z,-0.88
2023-02-06T16:15:39.256Z,-1.06
2023-02-06T16:18:32.343Z,-1.13
2023-02-06T16:21:16.806Z,-1.19
2023-02-06T16:24:06.872Z,-1.21
2023-02-06T16:26:49.742Z,-1.34
2023-02-06T16:29:31.834Z,-1.42
2023-02-06T16:32:13.808Z,-1.31
2023-02-06T16:34:46.089Z,-1.26
2023-02-06T16:37:30.019Z,-1.23
2023-02-06T16:39:59.616Z,-1.31
2023-02-06T16:42:41.549Z,-1.27
2023-02-06T16:45:25.183Z,-1.33
2023-02-06T16:47:56.229Z,-1.46
2023-02-06T16:50:25.803Z,-1.50
2023-02-06T16:52:58.758Z,-1.48
2023-02-06T16:55:29.037Z,-1.73
2023-02-06T16:58:01.579Z,-1.83
2023-02-06T17:00:33.065Z,-1.89
2023-02-06T17:03:01.545Z,-1.90
2023-02-06T17:05:31.665Z,-1.95
2023-02-06T17:08:18.968Z,-2.05
2023-02-06T17:10:48.698Z,-1.92
2023-02-06T17:13:21.420Z,-1.99
2023-02-06T17:15:52.373Z,-2.18
2023-02-06T17:18:23.130Z,-2.10
2023-02-06T17:20:56.682Z,-1.81
2023-02-06T17:23:26.341Z,-1.79
2023-02-06T17:25:55.912Z,-1.92
2023-02-06T17:28:25.445Z,-2.18
2023-02-06T17:30:55.051Z,-2.43
2023-02-06T17:33:26.144Z,-2.30
2023-02-06T17:35:56.164Z,-2.45
2023-02-06T17:38:25.838Z,-2.63
2023-02-06T17:40:55.638Z,-2.49
2023-02-06T17:43:24.403Z,-2.28
2023-02-06T17:45:53.191Z,-2.24
2023-02-06T17:48:22.115Z,-2.57
2023-02-06T17:50:52.664Z,-2.70
2023-02-06T17:53:22.319Z,-2.68
2023-02-06T17:55:51.973Z,-2.58
2023-02-06T17:58:22.586Z,-2.53
2023-02-06T18:00:52.264Z,-2.70
2023-02-06T18:03:21.924Z,-2.42
2023-02-06T18:06:02.149Z,-2.38
2023-02-06T18:08:31.263Z,-2.39
2023-02-06T18:11:00.899Z,-2.58
2023-02-06T18:13:29.651Z,-2.47
2023-02-06T18:15:58.909Z,-2.45
2023-02-06T18:18:28.585Z,-2.80
2023-02-06T18:20:57.917Z,-2.80
2023-02-06T18:23:27.383Z,-2.82
2023-02-06T18:25:55.236Z,-2.70
2023-02-06T18:28:24.051Z,-2.86
2023-02-06T18:30:51.920Z,-2.92
2023-02-06T18:33:20.730Z,-2.76
2023-02-06T18:35:51.179Z,-2.79
2023-02-06T18:38:19.149Z,-3.11
2023-02-06T18:40:48.221Z,-2.95
2023-02-06T18:43:18.230Z,-2.95
2023-02-06T18:45:47.717Z,-2.96
2023-02-06T18:48:16.418Z,-2.85
2023-02-06T18:50:45.153Z,-3.04
2023-02-06T18:53:12.933Z,-3.27
2023-02-06T18:55:42.231Z,-3.31
2023-02-06T18:58:10.032Z,-3.02
2023-02-06T19:00:42.464Z,-3.00
2023-02-06T19:03:10.851Z,-3.07
2023-02-06T19:05:38.689Z,-2.89
2023-02-06T19:08:07.400Z,-2.98
2023-02-06T19:10:35.412Z,-3.18
2023-02-06T19:13:03.458Z,-3.29
2023-02-06T19:15:34.381Z,-3.18
2023-02-06T19:18:04.608Z,-3.01
2023-02-06T19:20:33.626Z,-2.94
2023-02-06T19:23:03.631Z,-2.98
2023-02-06T19:25:31.410Z,-3.19
2023-02-06T19:28:00.067Z,-3.26
2023-02-06T19:30:28.848Z,-3.44
2023-02-06T19:32:57.430Z,-3.50
2023-02-06T19:35:25.367Z,-3.38
2023-02-06T19:37:53.075Z,-3.25
2023-02-06T19:40:20.892Z,-3.26
2023-02-06T19:42:48.644Z,-3.31
2023-02-06T19:45:16.875Z,-3.25
2023-02-06T19:47:44.635Z,-3.22
2023-02-06T19:50:14.362Z,-3.42
2023-02-06T19:52:43.102Z,-3.39
2023-02-06T19:55:11.076Z,-3.53
2023-02-06T19:57:39.698Z,-3.45
2023-02-06T20:00:08.846Z,-3.29
2023-02-06T20:02:39.173Z,-3.47
2023-02-06T20:05:08.017Z,-3.41
2023-02-06T20:07:38.290Z,-3.36
2023-02-06T20:10:07.121Z,-3.63
2023-02-06T20:12:34.838Z,-3.52
2023-02-06T20:15:03.098Z,-3.52
2023-02-06T20:17:31.259Z,-3.70
2023-02-06T20:20:04.624Z,-3.63
2023-02-06T20:22:32.653Z,-3.49
2023-02-06T20:25:00.473Z,-3.38
2023-02-06T20:27:28.854Z,-3.66
2023-02-06T20:29:56.840Z,-3.67
2023-02-06T20:32:24.662Z,-3.78
2023-02-06T20:34:55.089Z,-3.75
2023-02-06T20:37:24.660Z,-3.67
2023-02-06T20:39:53.439Z,-3.55
2023-02-06T20:42:24.812Z,-3.56
2023-02-06T20:44:54.486Z,-3.63
2023-02-06T20:47:23.376Z,-3.67
2023-02-06T20:49:54.181Z,-3.66
2023-02-06T20:52:24.167Z,-3.77
2023-02-06T20:54:52.801Z,-3.97
2023-02-06T20:57:23.145Z,-3.81
2023-02-06T20:59:53.492Z,-3.76
2023-02-06T21:02:23.233Z,-3.81
2023-02-06T21:04:53.024Z,-3.85
2023-02-06T21:07:22.695Z,-4.01
2023-02-06T21:09:52.362Z,-3.99
2023-02-06T21:12:21.969Z,-4.21
2023-02-06T21:14:51.636Z,-4.22
2023-02-06T21:17:21.341Z,-4.28
2023-02-06T21:19:51.193Z,-4.49
2023-02-06T21:22:23.911Z,-4.25
2023-02-06T21:24:53.600Z,-4.25
2023-02-06T21:27:23.235Z,-4.29
2023-02-06T21:29:52.970Z,-4.33
2023-02-06T21:32:22.589Z,-4.45
2023-02-06T21:34:52.516Z,-4.39
2023-02-06T21:37:22.951Z,-4.69
2023-02-06T21:39:52.596Z,-4.73
2023-02-06T21:42:26.286Z,-4.38
2023-02-06T21:44:54.971Z,-4.37
2023-02-06T21:47:24.603Z,-4.46
2023-02-06T21:49:54.233Z,-4.43
2023-02-06T21:52:23.928Z,-4.64
2023-02-06T21:54:53.564Z,-4.59
2023-02-06T21:57:23.159Z,-4.52
2023-02-06T21:59:52.869Z,-4.73
2023-02-06T22:02:22.617Z,-4.67
2023-02-06T22:04:52.223Z,-4.44
2023-02-06T22:07:42.066Z,-4.75
2023-02-06T22:10:11.938Z,-4.92
2023-02-06T22:12:41.536Z,-4.99
2023-02-06T22:15:11.169Z,-5.05
2023-02-06T22:17:40.828Z,-4.95
2023-02-06T22:20:10.663Z,-5.05
2023-02-06T22:22:41.261Z,-4.89
2023-02-06T22:25:11.896Z,-5.01
2023-02-06T22:27:41.564Z,-4.81
2023-02-06T22:30:11.804Z,-4.94
2023-02-06T22:32:41.513Z,-4.85
2023-02-06T22:35:11.179Z,-5.19
2023-02-06T22:37:42.561Z,-5.12
2023-02-06T22:40:13.358Z,-5.17
2023-02-06T22:42:42.980Z,-5.21
2023-02-06T22:45:12.566Z,-5.26
2023-02-06T22:47:42.181Z,-5.25
2023-02-06T22:50:11.861Z,-5.18
2023-02-06T22:52:58.980Z,-5.38
2023-02-06T22:55:48.480Z,-4.94
2023-02-06T22:58:18.045Z,-5.12
2023-02-06T23:00:45.856Z,-4.96
2023-02-06T23:03:15.376Z,-5.12
2023-02-06T23:05:45.006Z,-5.24
2023-02-06T23:08:15.986Z,-5.41
2023-02-06T23:10:48.411Z,-5.29
2023-02-06T23:13:17.896Z,-5.42
2023-02-06T23:15:47.542Z,-5.61
2023-02-06T23:18:17.204Z,-5.75
2023-02-06T23:20:46.873Z,-5.82
2023-02-06T23:23:16.576Z,-5.53
2023-02-06T23:25:47.192Z,-5.30
2023-02-06T23:28:17.163Z,-5.47
2023-02-06T23:30:47.262Z,-5.55
2023-02-06T23:33:18.963Z,-5.79
2023-02-06T23:35:47.952Z,-5.63
2023-02-06T23:38:17.109Z,-5.61
2023-02-06T23:40:48.798Z,-5.60
2023-02-06T23:43:18.665Z,-5.81
2023-02-06T23:45:48.340Z,-5.99
2023-02-06T23:48:17.969Z,-5.96
2023-02-06T23:50:47.551Z,-6.12
2023-02-06T23:53:17.130Z,-6.01
2023-02-06T23:55:46.676Z,-5.71
2023-02-06T23:58:16.327Z,-5.62
